Terminal Aerodrome Forecast
Issued by NWS Billings, MT

Home | Current Version | Previous Version | Graphics & Text | Print | Product List | Glossary On
Versions: 1 2 3 4 5 6 7 8 9 10 11 12 13 14 15 16 17 18 19 20 21 22 23 24 25 26 27 28 29 30 31 32 33 34 35 36 37 38 39 40
000
FTUS45 KBYZ 300936 AAA
TAFMLS
TAF AMD
KMLS 300936Z 3010/3106 VRB05KT P6SM VCTS FEW050CB SCT150
      TEMPO 3010/3011 VRB15G25KT 5SM -TSRA BKN050CB
     FM301100 34015G22KT 5SM -SHRA BKN040 OVC080
     FM301600 31015G22KT P6SM VCSH SCT030 BKN060
     FM302000 31015G25KT P6SM VCTS BKN050CB OVC100
     FM310200 30018KT P6SM FEW060 SCT150=

USA.gov is the U.S. government's official web portal to all federal, state and local government web resources and services.